sensor_id;sensor_type;location;lat;lon;timestamp;P1;durP1;ratioP1;P2;durP2;ratioP2
5912;SDS011;2982;42.684;23.356;2022-10-20T00:01:53;26.75;;;20.08;;
5912;SDS011;2982;42.684;23.356;2022-10-20T00:04:18;22.70;;;20.25;;
5912;SDS011;2982;42.684;23.356;2022-10-20T00:06:44;23.35;;;20.83;;
5912;SDS011;2982;42.684;23.356;2022-10-20T00:09:09;22.77;;;19.73;;
5912;SDS011;2982;42.684;23.356;2022-10-20T00:11:35;24.05;;;19.00;;
5912;SDS011;2982;42.684;23.356;2022-10-20T00:14:00;24.33;;;19.33;;
5912;SDS011;2982;42.684;23.356;2022-10-20T00:16:27;22.25;;;19.90;;
5912;SDS011;2982;42.684;23.356;2022-10-20T00:18:55;26.42;;;19.77;;
5912;SDS011;2982;42.684;23.356;2022-10-20T00:21:22;20.80;;;18.63;;
5912;SDS011;2982;42.684;23.356;2022-10-20T00:23:49;20.75;;;17.55;;
5912;SDS011;2982;42.684;23.356;2022-10-20T00:26:16;26.63;;;19.35;;
5912;SDS011;2982;42.684;23.356;2022-10-20T00:28:46;21.95;;;18.00;;
5912;SDS011;2982;42.684;23.356;2022-10-20T00:31:12;18.85;;;16.85;;
5912;SDS011;2982;42.684;23.356;2022-10-20T00:33:38;17.73;;;15.75;;
5912;SDS011;2982;42.684;23.356;2022-10-20T00:36:05;23.23;;;16.92;;
5912;SDS011;2982;42.684;23.356;2022-10-20T00:38:32;17.73;;;15.82;;
5912;SDS011;2982;42.684;23.356;2022-10-20T00:40:58;16.88;;;15.15;;
5912;SDS011;2982;42.684;23.356;2022-10-20T00:43:40;18.48;;;16.58;;
5912;SDS011;2982;42.684;23.356;2022-10-20T00:46:07;16.13;;;14.55;;
5912;SDS011;2982;42.684;23.356;2022-10-20T00:48:36;15.32;;;13.73;;
5912;SDS011;2982;42.684;23.356;2022-10-20T00:51:01;19.80;;;14.95;;
5912;SDS011;2982;42.684;23.356;2022-10-20T00:53:27;20.00;;;14.68;;
5912;SDS011;2982;42.684;23.356;2022-10-20T00:55:53;16.60;;;14.27;;
5912;SDS011;2982;42.684;23.356;2022-10-20T00:58:21;17.35;;;13.05;;
5912;SDS011;2982;42.684;23.356;2022-10-20T01:00:47;18.50;;;13.63;;
5912;SDS011;2982;42.684;23.356;2022-10-20T01:03:17;14.90;;;11.75;;
5912;SDS011;2982;42.684;23.356;2022-10-20T01:05:47;15.38;;;12.02;;
5912;SDS011;2982;42.684;23.356;2022-10-20T01:08:13;12.82;;;11.15;;
5912;SDS011;2982;42.684;23.356;2022-10-20T01:10:39;12.98;;;11.57;;
5912;SDS011;2982;42.684;23.356;2022-10-20T01:13:12;12.38;;;10.63;;
5912;SDS011;2982;42.684;23.356;2022-10-20T01:15:50;12.93;;;10.45;;
5912;SDS011;2982;42.684;23.356;2022-10-20T01:18:35;11.52;;;10.52;;
5912;SDS011;2982;42.684;23.356;2022-10-20T01:26:45;17.20;;;10.38;;
5912;SDS011;2982;42.684;23.356;2022-10-20T01:32:02;11.80;;;10.60;;
5912;SDS011;2982;42.684;23.356;2022-10-20T01:38:00;9.45;;;8.65;;
5912;SDS011;2982;42.684;23.356;2022-10-20T01:42:46;10.57;;;9.50;;
5912;SDS011;2982;42.684;23.356;2022-10-20T01:45:16;9.75;;;8.95;;
5912;SDS011;2982;42.684;23.356;2022-10-20T01:47:44;10.98;;;9.82;;
5912;SDS011;2982;42.684;23.356;2022-10-20T01:50:12;9.13;;;8.27;;
5912;SDS011;2982;42.684;23.356;2022-10-20T01:52:39;11.18;;;9.07;;
5912;SDS011;2982;42.684;23.356;2022-10-20T01:55:12;10.70;;;9.48;;
5912;SDS011;2982;42.684;23.356;2022-10-20T02:00:19;11.38;;;10.23;;
5912;SDS011;2982;42.684;23.356;2022-10-20T02:07:54;11.40;;;9.10;;
5912;SDS011;2982;42.684;23.356;2022-10-20T02:10:45;14.10;;;9.43;;
5912;SDS011;2982;42.684;23.356;2022-10-20T02:13:13;11.60;;;9.60;;
5912;SDS011;2982;42.684;23.356;2022-10-20T02:15:42;11.27;;;10.00;;
5912;SDS011;2982;42.684;23.356;2022-10-20T02:18:12;13.57;;;10.48;;
5912;SDS011;2982;42.684;23.356;2022-10-20T02:20:41;12.73;;;10.70;;
5912;SDS011;2982;42.684;23.356;2022-10-20T02:23:10;11.27;;;10.18;;
5912;SDS011;2982;42.684;23.356;2022-10-20T02:25:36;12.88;;;11.77;;
5912;SDS011;2982;42.684;23.356;2022-10-20T02:28:03;13.23;;;11.90;;
5912;SDS011;2982;42.684;23.356;2022-10-20T02:30:32;14.13;;;10.90;;
5912;SDS011;2982;42.684;23.356;2022-10-20T02:33:00;11.43;;;10.27;;
5912;SDS011;2982;42.684;23.356;2022-10-20T02:35:30;12.10;;;11.02;;
5912;SDS011;2982;42.684;23.356;2022-10-20T02:37:57;12.70;;;10.95;;
5912;SDS011;2982;42.684;23.356;2022-10-20T02:40:22;12.77;;;10.73;;
5912;SDS011;2982;42.684;23.356;2022-10-20T02:42:48;14.55;;;10.85;;
5912;SDS011;2982;42.684;23.356;2022-10-20T02:45:13;12.50;;;11.30;;
5912;SDS011;2982;42.684;23.356;2022-10-20T02:47:39;12.30;;;11.07;;
5912;SDS011;2982;42.684;23.356;2022-10-20T02:50:05;15.07;;;11.02;;
5912;SDS011;2982;42.684;23.356;2022-10-20T02:52:31;12.88;;;11.57;;
5912;SDS011;2982;42.684;23.356;2022-10-20T02:54:56;15.48;;;11.60;;
5912;SDS011;2982;42.684;23.356;2022-10-20T02:57:22;12.30;;;10.23;;
5912;SDS011;2982;42.684;23.356;2022-10-20T02:59:47;15.50;;;11.90;;
5912;SDS011;2982;42.684;23.356;2022-10-20T03:02:12;16.73;;;11.45;;
5912;SDS011;2982;42.684;23.356;2022-10-20T03:04:38;12.45;;;11.10;;
5912;SDS011;2982;42.684;23.356;2022-10-20T03:07:03;16.65;;;11.43;;
5912;SDS011;2982;42.684;23.356;2022-10-20T03:09:28;11.55;;;10.55;;
5912;SDS011;2982;42.684;23.356;2022-10-20T03:11:54;13.50;;;9.30;;
5912;SDS011;2982;42.684;23.356;2022-10-20T03:14:19;13.93;;;10.23;;
5912;SDS011;2982;42.684;23.356;2022-10-20T03:16:44;12.48;;;11.27;;
5912;SDS011;2982;42.684;23.356;2022-10-20T03:19:09;12.05;;;10.70;;
5912;SDS011;2982;42.684;23.356;2022-10-20T03:21:35;13.43;;;10.27;;
5912;SDS011;2982;42.684;23.356;2022-10-20T03:24:00;10.85;;;9.80;;
5912;SDS011;2982;42.684;23.356;2022-10-20T03:26:25;11.43;;;10.23;;
5912;SDS011;2982;42.684;23.356;2022-10-20T03:28:51;15.13;;;11.35;;
5912;SDS011;2982;42.684;23.356;2022-10-20T03:31:16;13.13;;;11.27;;
5912;SDS011;2982;42.684;23.356;2022-10-20T03:33:41;11.38;;;10.25;;
5912;SDS011;2982;42.684;23.356;2022-10-20T03:36:07;12.05;;;10.80;;
5912;SDS011;2982;42.684;23.356;2022-10-20T03:38:33;14.20;;;10.55;;
5912;SDS011;2982;42.684;23.356;2022-10-20T03:40:58;12.20;;;10.43;;
5912;SDS011;2982;42.684;23.356;2022-10-20T03:43:23;14.95;;;11.18;;
5912;SDS011;2982;42.684;23.356;2022-10-20T03:45:48;13.38;;;11.98;;
5912;SDS011;2982;42.684;23.356;2022-10-20T03:48:14;13.68;;;11.52;;
5912;SDS011;2982;42.684;23.356;2022-10-20T03:50:40;11.93;;;10.27;;
5912;SDS011;2982;42.684;23.356;2022-10-20T03:53:06;14.43;;;11.50;;
5912;SDS011;2982;42.684;23.356;2022-10-20T03:55:33;12.68;;;11.30;;
5912;SDS011;2982;42.684;23.356;2022-10-20T03:58:01;11.63;;;10.43;;
5912;SDS011;2982;42.684;23.356;2022-10-20T04:00:26;14.73;;;11.25;;
5912;SDS011;2982;42.684;23.356;2022-10-20T04:02:52;12.90;;;11.60;;
5912;SDS011;2982;42.684;23.356;2022-10-20T04:05:18;13.82;;;11.15;;
5912;SDS011;2982;42.684;23.356;2022-10-20T04:07:44;15.10;;;11.55;;
5912;SDS011;2982;42.684;23.356;2022-10-20T04:10:10;12.68;;;11.38;;
5912;SDS011;2982;42.684;23.356;2022-10-20T04:12:36;12.30;;;11.07;;
5912;SDS011;2982;42.684;23.356;2022-10-20T04:15:03;14.10;;;11.73;;
5912;SDS011;2982;42.684;23.356;2022-10-20T04:17:29;12.57;;;11.32;;
5912;SDS011;2982;42.684;23.356;2022-10-20T04:19:54;12.95;;;11.55;;
5912;SDS011;2982;42.684;23.356;2022-10-20T04:22:20;12.88;;;11.27;;
5912;SDS011;2982;42.684;23.356;2022-10-20T04:24:45;13.20;;;11.38;;
5912;SDS011;2982;42.684;23.356;2022-10-20T04:27:10;12.68;;;11.05;;
5912;SDS011;2982;42.684;23.356;2022-10-20T04:29:36;12.57;;;10.95;;
5912;SDS011;2982;42.684;23.356;2022-10-20T04:32:01;17.00;;;11.23;;
5912;SDS011;2982;42.684;23.356;2022-10-20T04:34:27;12.93;;;11.65;;
5912;SDS011;2982;42.684;23.356;2022-10-20T04:36:52;13.38;;;11.55;;
5912;SDS011;2982;42.684;23.356;2022-10-20T04:39:18;18.92;;;12.40;;
5912;SDS011;2982;42.684;23.356;2022-10-20T04:41:43;14.55;;;12.18;;
5912;SDS011;2982;42.684;23.356;2022-10-20T04:44:08;20.67;;;12.80;;
5912;SDS011;2982;42.684;23.356;2022-10-20T04:46:33;13.18;;;11.90;;
5912;SDS011;2982;42.684;23.356;2022-10-20T04:48:59;14.75;;;12.70;;
5912;SDS011;2982;42.684;23.356;2022-10-20T04:51:24;16.80;;;13.82;;
5912;SDS011;2982;42.684;23.356;2022-10-20T04:53:52;17.33;;;12.77;;
5912;SDS011;2982;42.684;23.356;2022-10-20T04:56:21;21.30;;;13.88;;
5912;SDS011;2982;42.684;23.356;2022-10-20T04:58:50;15.48;;;12.70;;
5912;SDS011;2982;42.684;23.356;2022-10-20T05:01:17;14.18;;;12.00;;
5912;SDS011;2982;42.684;23.356;2022-10-20T05:03:43;18.80;;;12.60;;
5912;SDS011;2982;42.684;23.356;2022-10-20T05:06:13;15.43;;;13.27;;
5912;SDS011;2982;42.684;23.356;2022-10-20T05:08:47;20.25;;;13.55;;
5912;SDS011;2982;42.684;23.356;2022-10-20T05:11:15;16.17;;;12.40;;
5912;SDS011;2982;42.684;23.356;2022-10-20T05:13:43;19.58;;;13.25;;
5912;SDS011;2982;42.684;23.356;2022-10-20T05:16:19;13.70;;;11.68;;
5912;SDS011;2982;42.684;23.356;2022-10-20T05:18:53;18.05;;;12.15;;
5912;SDS011;2982;42.684;23.356;2022-10-20T05:21:20;15.85;;;11.60;;
5912;SDS011;2982;42.684;23.356;2022-10-20T05:23:47;16.05;;;12.90;;
5912;SDS011;2982;42.684;23.356;2022-10-20T05:26:15;13.63;;;11.60;;
5912;SDS011;2982;42.684;23.356;2022-10-20T05:28:43;14.43;;;12.68;;
5912;SDS011;2982;42.684;23.356;2022-10-20T05:31:10;18.98;;;13.45;;
5912;SDS011;2982;42.684;23.356;2022-10-20T05:33:36;16.98;;;12.73;;
5912;SDS011;2982;42.684;23.356;2022-10-20T05:36:06;14.98;;;13.38;;
5912;SDS011;2982;42.684;23.356;2022-10-20T05:38:32;13.07;;;11.52;;
5912;SDS011;2982;42.684;23.356;2022-10-20T05:41:11;17.30;;;11.70;;
5912;SDS011;2982;42.684;23.356;2022-10-20T05:43:37;12.32;;;11.10;;
5912;SDS011;2982;42.684;23.356;2022-10-20T05:46:03;12.23;;;11.07;;
5912;SDS011;2982;42.684;23.356;2022-10-20T05:48:29;17.70;;;11.15;;
5912;SDS011;2982;42.684;23.356;2022-10-20T05:50:54;16.00;;;11.10;;
5912;SDS011;2982;42.684;23.356;2022-10-20T05:53:20;16.90;;;10.40;;
5912;SDS011;2982;42.684;23.356;2022-10-20T05:55:45;18.10;;;11.35;;
5912;SDS011;2982;42.684;23.356;2022-10-20T05:58:11;13.85;;;10.63;;
5912;SDS011;2982;42.684;23.356;2022-10-20T06:00:36;12.73;;;11.63;;
5912;SDS011;2982;42.684;23.356;2022-10-20T06:03:01;13.68;;;12.15;;
5912;SDS011;2982;42.684;23.356;2022-10-20T06:05:27;20.83;;;12.68;;
5912;SDS011;2982;42.684;23.356;2022-10-20T06:07:52;14.63;;;11.60;;
5912;SDS011;2982;42.684;23.356;2022-10-20T06:10:17;18.88;;;12.70;;
5912;SDS011;2982;42.684;23.356;2022-10-20T06:12:43;23.98;;;13.18;;
5912;SDS011;2982;42.684;23.356;2022-10-20T06:15:08;20.33;;;14.00;;
5912;SDS011;2982;42.684;23.356;2022-10-20T06:17:33;17.95;;;13.25;;
5912;SDS011;2982;42.684;23.356;2022-10-20T06:19:59;16.52;;;13.63;;
5912;SDS011;2982;42.684;23.356;2022-10-20T06:22:24;15.30;;;13.10;;
5912;SDS011;2982;42.684;23.356;2022-10-20T06:24:49;14.98;;;12.65;;
5912;SDS011;2982;42.684;23.356;2022-10-20T06:27:15;16.17;;;12.95;;
5912;SDS011;2982;42.684;23.356;2022-10-20T06:29:40;16.90;;;12.55;;
5912;SDS011;2982;42.684;23.356;2022-10-20T06:32:05;18.55;;;11.85;;
5912;SDS011;2982;42.684;23.356;2022-10-20T06:34:31;15.25;;;13.68;;
5912;SDS011;2982;42.684;23.356;2022-10-20T06:36:56;17.40;;;13.27;;
5912;SDS011;2982;42.684;23.356;2022-10-20T06:39:22;15.80;;;13.95;;
5912;SDS011;2982;42.684;23.356;2022-10-20T06:41:49;16.90;;;14.18;;
5912;SDS011;2982;42.684;23.356;2022-10-20T06:44:16;16.80;;;15.02;;
5912;SDS011;2982;42.684;23.356;2022-10-20T06:46:42;19.52;;;13.48;;
5912;SDS011;2982;42.684;23.356;2022-10-20T06:49:08;18.75;;;14.98;;
5912;SDS011;2982;42.684;23.356;2022-10-20T06:51:34;17.92;;;14.23;;
5912;SDS011;2982;42.684;23.356;2022-10-20T06:54:00;21.17;;;14.43;;
5912;SDS011;2982;42.684;23.356;2022-10-20T06:56:26;14.73;;;13.07;;
5912;SDS011;2982;42.684;23.356;2022-10-20T06:58:53;15.73;;;14.18;;
5912;SDS011;2982;42.684;23.356;2022-10-20T07:01:23;15.32;;;13.73;;
5912;SDS011;2982;42.684;23.356;2022-10-20T07:03:51;17.25;;;15.13;;
5912;SDS011;2982;42.684;23.356;2022-10-20T07:06:23;14.77;;;13.32;;
5912;SDS011;2982;42.684;23.356;2022-10-20T07:08:53;14.50;;;12.98;;
5912;SDS011;2982;42.684;23.356;2022-10-20T07:11:20;13.95;;;12.65;;
5912;SDS011;2982;42.684;23.356;2022-10-20T07:13:46;12.77;;;10.82;;
5912;SDS011;2982;42.684;23.356;2022-10-20T07:16:12;17.75;;;12.35;;
5912;SDS011;2982;42.684;23.356;2022-10-20T07:18:39;15.95;;;12.45;;
5912;SDS011;2982;42.684;23.356;2022-10-20T07:21:06;13.55;;;12.23;;
5912;SDS011;2982;42.684;23.356;2022-10-20T07:23:34;17.98;;;11.98;;
5912;SDS011;2982;42.684;23.356;2022-10-20T07:28:30;13.68;;;10.98;;
5912;SDS011;2982;42.684;23.356;2022-10-20T07:30:56;14.43;;;11.25;;
5912;SDS011;2982;42.684;23.356;2022-10-20T07:33:21;14.40;;;11.90;;
5912;SDS011;2982;42.684;23.356;2022-10-20T07:35:47;13.30;;;11.90;;
5912;SDS011;2982;42.684;23.356;2022-10-20T07:38:12;13.55;;;10.55;;
5912;SDS011;2982;42.684;23.356;2022-10-20T07:40:38;15.43;;;11.07;;
5912;SDS011;2982;42.684;23.356;2022-10-20T07:43:03;14.07;;;11.02;;
5912;SDS011;2982;42.684;23.356;2022-10-20T07:45:29;20.45;;;11.75;;
5912;SDS011;2982;42.684;23.356;2022-10-20T07:47:54;11.85;;;10.70;;
5912;SDS011;2982;42.684;23.356;2022-10-20T07:50:19;15.13;;;11.60;;
5912;SDS011;2982;42.684;23.356;2022-10-20T07:52:48;12.73;;;11.10;;
5912;SDS011;2982;42.684;23.356;2022-10-20T07:55:14;12.45;;;11.35;;
5912;SDS011;2982;42.684;23.356;2022-10-20T07:57:40;11.65;;;10.55;;
5912;SDS011;2982;42.684;23.356;2022-10-20T08:00:05;9.68;;;8.80;;
5912;SDS011;2982;42.684;23.356;2022-10-20T08:02:31;11.20;;;10.18;;
5912;SDS011;2982;42.684;23.356;2022-10-20T08:04:56;14.65;;;10.88;;
5912;SDS011;2982;42.684;23.356;2022-10-20T08:07:22;11.55;;;9.63;;
5912;SDS011;2982;42.684;23.356;2022-10-20T08:09:47;9.63;;;7.97;;
5912;SDS011;2982;42.684;23.356;2022-10-20T08:12:12;12.02;;;9.95;;
5912;SDS011;2982;42.684;23.356;2022-10-20T08:14:37;11.38;;;10.23;;
5912;SDS011;2982;42.684;23.356;2022-10-20T08:17:03;10.50;;;9.52;;
5912;SDS011;2982;42.684;23.356;2022-10-20T08:19:28;9.82;;;8.93;;
5912;SDS011;2982;42.684;23.356;2022-10-20T08:21:54;11.93;;;9.45;;
5912;SDS011;2982;42.684;23.356;2022-10-20T08:24:19;13.10;;;8.68;;
5912;SDS011;2982;42.684;23.356;2022-10-20T08:26:45;9.85;;;8.95;;
5912;SDS011;2982;42.684;23.356;2022-10-20T08:29:10;9.23;;;8.02;;
5912;SDS011;2982;42.684;23.356;2022-10-20T08:31:36;9.68;;;8.65;;
5912;SDS011;2982;42.684;23.356;2022-10-20T08:34:01;12.52;;;8.65;;
5912;SDS011;2982;42.684;23.356;2022-10-20T08:36:26;9.43;;;8.63;;
5912;SDS011;2982;42.684;23.356;2022-10-20T08:38:52;12.98;;;7.68;;
5912;SDS011;2982;42.684;23.356;2022-10-20T08:41:22;9.77;;;7.43;;
5912;SDS011;2982;42.684;23.356;2022-10-20T08:43:51;6.85;;;6.25;;
5912;SDS011;2982;42.684;23.356;2022-10-20T08:46:19;9.57;;;6.35;;
5912;SDS011;2982;42.684;23.356;2022-10-20T08:48:46;7.60;;;6.90;;
5912;SDS011;2982;42.684;23.356;2022-10-20T08:51:22;8.77;;;6.80;;
5912;SDS011;2982;42.684;23.356;2022-10-20T08:53:50;7.13;;;6.18;;
5912;SDS011;2982;42.684;23.356;2022-10-20T08:56:19;6.55;;;5.95;;
5912;SDS011;2982;42.684;23.356;2022-10-20T08:58:49;11.43;;;6.80;;
5912;SDS011;2982;42.684;23.356;2022-10-20T09:01:36;6.05;;;5.53;;
5912;SDS011;2982;42.684;23.356;2022-10-20T09:04:20;5.75;;;5.35;;
5912;SDS011;2982;42.684;23.356;2022-10-20T09:06:52;7.38;;;5.63;;
5912;SDS011;2982;42.684;23.356;2022-10-20T09:09:23;6.78;;;6.15;;
5912;SDS011;2982;42.684;23.356;2022-10-20T09:11:49;5.82;;;5.28;;
5912;SDS011;2982;42.684;23.356;2022-10-20T09:14:15;4.90;;;4.47;;
5912;SDS011;2982;42.684;23.356;2022-10-20T09:16:41;5.60;;;4.72;;
5912;SDS011;2982;42.684;23.356;2022-10-20T09:19:12;6.25;;;4.03;;
5912;SDS011;2982;42.684;23.356;2022-10-20T09:21:45;6.07;;;5.13;;
5912;SDS011;2982;42.684;23.356;2022-10-20T09:24:13;14.02;;;4.70;;
5912;SDS011;2982;42.684;23.356;2022-10-20T09:26:45;4.90;;;4.50;;
5912;SDS011;2982;42.684;23.356;2022-10-20T09:29:13;9.57;;;4.13;;
5912;SDS011;2982;42.684;23.356;2022-10-20T09:34:20;4.28;;;3.85;;
5912;SDS011;2982;42.684;23.356;2022-10-20T09:36:47;3.10;;;2.90;;
5912;SDS011;2982;42.684;23.356;2022-10-20T09:39:21;3.80;;;3.60;;
5912;SDS011;2982;42.684;23.356;2022-10-20T09:41:48;5.95;;;4.70;;
5912;SDS011;2982;42.684;23.356;2022-10-20T09:44:22;11.27;;;4.22;;
5912;SDS011;2982;42.684;23.356;2022-10-20T09:46:49;4.50;;;4.10;;
5912;SDS011;2982;42.684;23.356;2022-10-20T09:49:27;4.35;;;3.97;;
5912;SDS011;2982;42.684;23.356;2022-10-20T09:52:02;3.60;;;3.40;;
5912;SDS011;2982;42.684;23.356;2022-10-20T09:54:39;3.78;;;3.58;;
5912;SDS011;2982;42.684;23.356;2022-10-20T09:57:05;3.33;;;3.03;;
5912;SDS011;2982;42.684;23.356;2022-10-20T09:59:39;3.55;;;3.25;;
5912;SDS011;2982;42.684;23.356;2022-10-20T10:04:39;3.72;;;3.22;;
5912;SDS011;2982;42.684;23.356;2022-10-20T10:12:26;5.50;;;3.17;;
5912;SDS011;2982;42.684;23.356;2022-10-20T10:14:54;3.65;;;2.88;;
5912;SDS011;2982;42.684;23.356;2022-10-20T10:17:31;5.82;;;3.25;;
5912;SDS011;2982;42.684;23.356;2022-10-20T10:19:57;2.65;;;2.45;;
5912;SDS011;2982;42.684;23.356;2022-10-20T10:22:27;4.20;;;3.90;;
5912;SDS011;2982;42.684;23.356;2022-10-20T10:24:53;6.88;;;3.00;;
5912;SDS011;2982;42.684;23.356;2022-10-20T10:27:29;4.00;;;3.55;;
5912;SDS011;2982;42.684;23.356;2022-10-20T10:32:44;3.40;;;2.97;;
5912;SDS011;2982;42.684;23.356;2022-10-20T10:37:36;3.42;;;2.75;;
5912;SDS011;2982;42.684;23.356;2022-10-20T10:40:14;3.20;;;2.50;;
5912;SDS011;2982;42.684;23.356;2022-10-20T10:42:45;3.05;;;2.85;;
5912;SDS011;2982;42.684;23.356;2022-10-20T10:58:44;2.83;;;2.50;;
5912;SDS011;2982;42.684;23.356;2022-10-20T11:26:41;4.35;;;2.50;;
5912;SDS011;2982;42.684;23.356;2022-10-20T11:29:11;3.22;;;3.03;;
5912;SDS011;2982;42.684;23.356;2022-10-20T11:31:50;4.57;;;2.75;;
5912;SDS011;2982;42.684;23.356;2022-10-20T11:34:29;5.90;;;3.03;;
5912;SDS011;2982;42.684;23.356;2022-10-20T11:37:17;3.90;;;2.25;;
5912;SDS011;2982;42.684;23.356;2022-10-20T11:45:25;2.90;;;2.60;;
5912;SDS011;2982;42.684;23.356;2022-10-20T11:47:52;2.50;;;2.30;;
5912;SDS011;2982;42.684;23.356;2022-10-20T11:50:25;2.97;;;2.78;;
5912;SDS011;2982;42.684;23.356;2022-10-20T11:58:42;4.10;;;2.63;;
5912;SDS011;2982;42.684;23.356;2022-10-20T12:05:17;2.95;;;2.40;;
5912;SDS011;2982;42.684;23.356;2022-10-20T12:10:30;5.55;;;4.75;;
5912;SDS011;2982;42.684;23.356;2022-10-20T12:13:14;4.15;;;2.55;;
5912;SDS011;2982;42.684;23.356;2022-10-20T12:15:55;2.75;;;2.55;;
5912;SDS011;2982;42.684;23.356;2022-10-20T12:20:58;3.50;;;2.70;;
5912;SDS011;2982;42.684;23.356;2022-10-20T12:27:00;3.35;;;2.15;;
5912;SDS011;2982;42.684;23.356;2022-10-20T12:34:47;4.75;;;2.58;;
5912;SDS011;2982;42.684;23.356;2022-10-20T12:37:17;3.20;;;3.00;;
5912;SDS011;2982;42.684;23.356;2022-10-20T12:39:47;4.88;;;2.88;;
5912;SDS011;2982;42.684;23.356;2022-10-20T12:42:22;2.95;;;2.83;;
5912;SDS011;2982;42.684;23.356;2022-10-20T12:47:47;3.55;;;2.50;;
5912;SDS011;2982;42.684;23.356;2022-10-20T12:55:38;4.13;;;3.10;;
5912;SDS011;2982;42.684;23.356;2022-10-20T13:06:01;9.30;;;3.08;;
5912;SDS011;2982;42.684;23.356;2022-10-20T13:16:36;3.05;;;2.80;;
5912;SDS011;2982;42.684;23.356;2022-10-20T13:19:05;3.88;;;2.53;;
5912;SDS011;2982;42.684;23.356;2022-10-20T13:21:33;4.43;;;2.33;;
5912;SDS011;2982;42.684;23.356;2022-10-20T13:24:12;3.95;;;2.20;;
5912;SDS011;2982;42.684;23.356;2022-10-20T13:29:18;2.33;;;2.15;;
5912;SDS011;2982;42.684;23.356;2022-10-20T13:32:11;2.95;;;2.17;;
5912;SDS011;2982;42.684;23.356;2022-10-20T13:43:29;4.93;;;2.22;;
5912;SDS011;2982;42.684;23.356;2022-10-20T13:51:15;2.60;;;2.25;;
5912;SDS011;2982;42.684;23.356;2022-10-20T13:53:45;2.58;;;2.47;;
5912;SDS011;2982;42.684;23.356;2022-10-20T13:58:40;2.50;;;2.30;;
5912;SDS011;2982;42.684;23.356;2022-10-20T14:01:13;3.92;;;2.63;;
5912;SDS011;2982;42.684;23.356;2022-10-20T14:03:41;2.78;;;2.58;;
5912;SDS011;2982;42.684;23.356;2022-10-20T14:08:57;2.05;;;1.90;;
5912;SDS011;2982;42.684;23.356;2022-10-20T14:11:32;3.28;;;2.63;;
5912;SDS011;2982;42.684;23.356;2022-10-20T14:13:57;5.57;;;1.95;;
5912;SDS011;2982;42.684;23.356;2022-10-20T14:16:25;7.07;;;2.50;;
5912;SDS011;2982;42.684;23.356;2022-10-20T14:19:04;3.03;;;2.80;;
5912;SDS011;2982;42.684;23.356;2022-10-20T14:21:38;2.28;;;2.08;;
5912;SDS011;2982;42.684;23.356;2022-10-20T14:27:00;2.33;;;2.13;;
5912;SDS011;2982;42.684;23.356;2022-10-20T14:29:32;5.53;;;2.45;;
5912;SDS011;2982;42.684;23.356;2022-10-20T14:32:01;2.90;;;2.70;;
5912;SDS011;2982;42.684;23.356;2022-10-20T14:34:28;3.35;;;2.20;;
5912;SDS011;2982;42.684;23.356;2022-10-20T14:36:57;2.88;;;2.35;;
5912;SDS011;2982;42.684;23.356;2022-10-20T14:39:36;2.67;;;2.45;;
5912;SDS011;2982;42.684;23.356;2022-10-20T14:44:49;6.72;;;4.47;;
5912;SDS011;2982;42.684;23.356;2022-10-20T14:47:16;4.90;;;2.47;;
5912;SDS011;2982;42.684;23.356;2022-10-20T14:49:43;6.13;;;2.85;;
5912;SDS011;2982;42.684;23.356;2022-10-20T14:54:43;3.47;;;2.08;;
5912;SDS011;2982;42.684;23.356;2022-10-20T14:59:50;4.50;;;1.90;;
5912;SDS011;2982;42.684;23.356;2022-10-20T15:02:19;4.25;;;2.40;;
5912;SDS011;2982;42.684;23.356;2022-10-20T15:04:47;7.43;;;2.50;;
5912;SDS011;2982;42.684;23.356;2022-10-20T15:07:21;2.70;;;2.50;;
5912;SDS011;2982;42.684;23.356;2022-10-20T15:09:47;2.88;;;2.40;;
5912;SDS011;2982;42.684;23.356;2022-10-20T15:14:51;5.88;;;2.90;;
5912;SDS011;2982;42.684;23.356;2022-10-20T15:17:35;3.58;;;2.42;;
5912;SDS011;2982;42.684;23.356;2022-10-20T15:22:56;2.08;;;1.92;;
5912;SDS011;2982;42.684;23.356;2022-10-20T15:25:27;3.17;;;2.63;;
5912;SDS011;2982;42.684;23.356;2022-10-20T15:27:55;4.18;;;2.95;;
5912;SDS011;2982;42.684;23.356;2022-10-20T15:30:23;5.60;;;2.70;;
5912;SDS011;2982;42.684;23.356;2022-10-20T15:32:49;6.07;;;2.90;;
5912;SDS011;2982;42.684;23.356;2022-10-20T15:35:19;6.28;;;3.17;;
5912;SDS011;2982;42.684;23.356;2022-10-20T15:37:49;5.43;;;3.20;;
5912;SDS011;2982;42.684;23.356;2022-10-20T15:40:16;4.10;;;2.95;;
5912;SDS011;2982;42.684;23.356;2022-10-20T15:42:42;3.22;;;2.75;;
5912;SDS011;2982;42.684;23.356;2022-10-20T15:45:25;2.60;;;2.40;;
5912;SDS011;2982;42.684;23.356;2022-10-20T15:47:56;3.38;;;3.05;;
5912;SDS011;2982;42.684;23.356;2022-10-20T15:50:22;4.65;;;2.90;;
5912;SDS011;2982;42.684;23.356;2022-10-20T15:52:47;5.43;;;2.55;;
5912;SDS011;2982;42.684;23.356;2022-10-20T15:55:19;3.45;;;2.83;;
5912;SDS011;2982;42.684;23.356;2022-10-20T15:57:49;5.55;;;3.85;;
5912;SDS011;2982;42.684;23.356;2022-10-20T16:00:15;6.25;;;2.95;;
5912;SDS011;2982;42.684;23.356;2022-10-20T16:02:41;4.45;;;3.22;;
5912;SDS011;2982;42.684;23.356;2022-10-20T16:05:06;9.05;;;2.72;;
5912;SDS011;2982;42.684;23.356;2022-10-20T16:07:32;7.07;;;3.45;;
5912;SDS011;2982;42.684;23.356;2022-10-20T16:09:57;3.97;;;2.70;;
5912;SDS011;2982;42.684;23.356;2022-10-20T16:12:22;11.38;;;3.17;;
5912;SDS011;2982;42.684;23.356;2022-10-20T16:14:48;5.15;;;3.40;;
5912;SDS011;2982;42.684;23.356;2022-10-20T16:17:14;3.90;;;2.80;;
5912;SDS011;2982;42.684;23.356;2022-10-20T16:19:40;6.07;;;2.90;;
5912;SDS011;2982;42.684;23.356;2022-10-20T16:22:06;4.47;;;3.25;;
5912;SDS011;2982;42.684;23.356;2022-10-20T16:24:32;5.80;;;3.00;;
5912;SDS011;2982;42.684;23.356;2022-10-20T16:26:57;3.85;;;2.67;;
5912;SDS011;2982;42.684;23.356;2022-10-20T16:29:22;3.22;;;2.92;;
5912;SDS011;2982;42.684;23.356;2022-10-20T16:31:47;4.40;;;3.42;;
5912;SDS011;2982;42.684;23.356;2022-10-20T16:34:13;3.65;;;2.58;;
5912;SDS011;2982;42.684;23.356;2022-10-20T16:36:38;3.17;;;2.88;;
5912;SDS011;2982;42.684;23.356;2022-10-20T16:39:03;4.43;;;3.28;;
5912;SDS011;2982;42.684;23.356;2022-10-20T16:41:29;4.80;;;3.58;;
5912;SDS011;2982;42.684;23.356;2022-10-20T16:43:54;7.20;;;3.20;;
5912;SDS011;2982;42.684;23.356;2022-10-20T16:46:19;5.05;;;3.42;;
5912;SDS011;2982;42.684;23.356;2022-10-20T16:48:45;6.50;;;3.45;;
5912;SDS011;2982;42.684;23.356;2022-10-20T16:51:10;9.02;;;3.85;;
5912;SDS011;2982;42.684;23.356;2022-10-20T16:53:36;10.13;;;3.83;;
5912;SDS011;2982;42.684;23.356;2022-10-20T16:56:02;4.78;;;3.90;;
5912;SDS011;2982;42.684;23.356;2022-10-20T16:58:28;6.45;;;3.38;;
5912;SDS011;2982;42.684;23.356;2022-10-20T17:01:04;6.75;;;3.60;;
5912;SDS011;2982;42.684;23.356;2022-10-20T17:03:31;5.75;;;3.20;;
5912;SDS011;2982;42.684;23.356;2022-10-20T17:05:57;8.05;;;3.72;;
5912;SDS011;2982;42.684;23.356;2022-10-20T17:08:25;3.67;;;3.22;;
5912;SDS011;2982;42.684;23.356;2022-10-20T17:10:55;4.57;;;3.67;;
5912;SDS011;2982;42.684;23.356;2022-10-20T17:13:23;5.75;;;3.90;;
5912;SDS011;2982;42.684;23.356;2022-10-20T17:15:48;3.92;;;3.63;;
5912;SDS011;2982;42.684;23.356;2022-10-20T17:18:13;10.82;;;3.67;;
5912;SDS011;2982;42.684;23.356;2022-10-20T17:20:39;6.55;;;3.70;;
5912;SDS011;2982;42.684;23.356;2022-10-20T17:23:04;11.13;;;4.13;;
5912;SDS011;2982;42.684;23.356;2022-10-20T17:25:32;4.20;;;3.65;;
5912;SDS011;2982;42.684;23.356;2022-10-20T17:27:57;3.55;;;3.35;;
5912;SDS011;2982;42.684;23.356;2022-10-20T17:30:23;5.13;;;3.92;;
5912;SDS011;2982;42.684;23.356;2022-10-20T17:32:48;4.13;;;3.72;;
5912;SDS011;2982;42.684;23.356;2022-10-20T17:35:13;4.22;;;3.75;;
5912;SDS011;2982;42.684;23.356;2022-10-20T17:37:38;3.97;;;3.55;;
5912;SDS011;2982;42.684;23.356;2022-10-20T17:40:04;4.00;;;3.70;;
5912;SDS011;2982;42.684;23.356;2022-10-20T17:42:31;6.20;;;3.72;;
5912;SDS011;2982;42.684;23.356;2022-10-20T17:44:56;8.95;;;3.80;;